Boaz, AL

8:32 AM CST on January 18, 2017 (GMT -0600)
Sardis City | | Change Station

Elev 1056 ft 34.17 °N, 86.11 °W | Updated 11 minutes ago

Overcast
Overcast
55.8 °F
Feels Like 55.8 °F
N
2.0
Wind Variable Wind from NNW
Gusts 5.0 mph

Today
High -- | Low -- °F
--% Chance of Precip.
Yesterday
High -- | Low -- °F
Precip. -- in
Pressure 30.18 in
Visibility 10.0 miles
Clouds Mostly Cloudy 3600 ft
Overcast 4700 ft
Dew Point 53 °F
Humidity 89%
Rainfall 0.00 in
Snow Depth Not available.
6:49 AM 5:01 PM
Waning Gibbous, 63% visible
METAR K8A0 181415Z AUTO 30004KT 10SM BKN036 OVC047 12/12 A3018 RMK AO2
Pressure 30.18 in
Visibility 10.0 miles
Clouds Mostly Cloudy 3600 ft
Overcast 4700 ft
Dew Point 53 °F
Humidity 89%
Rainfall 0.00 in
Snow Depth Not available.
6:49 AM 5:01 PM
Waning Gibbous, 63% visible
METAR K8A0 181415Z AUTO 30004KT 10SM BKN036 OVC047 12/12 A3018 RMK AO2

Get Your Daily Forecast Email!

Thanks for signing up!

Be on the lookout for a verification email in your inbox.

You'll start receiving the daily forecast at 8 AM.

×

10-Day Weather Forecast

Almanac

Astronomy

Jan. 18, 2017 Rise Set
Actual Time
Civil Twilight
Nautical Twilight
Astronomical Twilight
Moon
Length of Visible Light
Length of Day
Tomorrow will be .
, % of the Moon is Illuminated

Today's Extremes

State Highs State Lows

Community

WunderPhotos

Upload Photos

1,962,540 photos uploaded!

WunderBlog® & News

Nearby

Air Quality

  Air Quality AQ Index Pollutant
Not available.

Snow Depth

Station Depth Elevation

Earthquake Activity

City Distance Mag. Time & Date
Minimum magnitude displayed is 2.5.

Coastal Water Temperatures

Place Temperature

Stations

Nearby Weather Stations

Station Location Temp. Windchill Dew Point Humidity Wind Precip. Elev Updated Type
                   

Watches & Warnings

There are currently no watches in effect.